createdAt,value
2022-09-15T00:00:59.155Z,95.06
2022-09-15T00:01:59.368Z,95.26
2022-09-15T00:02:59.591Z,95.17
2022-09-15T00:03:59.757Z,95.26
2022-09-15T00:04:59.925Z,95.26
2022-09-15T00:06:00.096Z,95.47
2022-09-15T00:07:00.300Z,95.37
2022-09-15T00:08:00.480Z,95.37
2022-09-15T00:09:00.642Z,95.47
2022-09-15T00:10:00.812Z,95.57
2022-09-15T00:11:00.988Z,95.57
2022-09-15T00:12:01.172Z,95.57
2022-09-15T00:13:01.341Z,95.57
2022-09-15T00:14:01.502Z,95.57
2022-09-15T00:15:01.669Z,95.57
2022-09-15T00:16:01.829Z,95.57
2022-09-15T00:17:02.105Z,95.67
2022-09-15T00:18:02.189Z,95.78
2022-09-15T00:19:02.643Z,95.87
2022-09-15T00:20:02.488Z,95.87
2022-09-15T00:21:02.671Z,95.98
2022-09-15T00:22:02.862Z,96.08
2022-09-15T00:23:03.027Z,96.18
2022-09-15T00:24:03.198Z,96.33
2022-09-15T00:25:03.371Z,96.38
2022-09-15T00:26:03.532Z,96.53
2022-09-15T00:27:03.727Z,96.63
2022-09-15T00:28:03.911Z,96.83
2022-09-15T00:29:04.082Z,96.94
2022-09-15T00:30:04.253Z,97.04
2022-09-15T00:31:04.454Z,97.04
2022-09-15T00:32:04.708Z,97.04
2022-09-15T00:33:04.771Z,97.14
2022-09-15T00:34:04.958Z,97.24
2022-09-15T00:35:05.113Z,97.24
2022-09-15T00:36:05.281Z,97.34
2022-09-15T00:37:05.470Z,97.34
2022-09-15T00:38:05.650Z,97.34
2022-09-15T00:39:05.834Z,97.34
2022-09-15T00:40:06.112Z,97.44
2022-09-15T00:41:06.282Z,97.44
2022-09-15T00:42:06.375Z,97.44
2022-09-15T00:43:06.545Z,97.44
2022-09-15T00:44:06.726Z,97.44
2022-09-15T00:45:06.915Z,97.44
2022-09-15T00:46:07.160Z,97.44
2022-09-15T00:47:19.155Z,97.55
2022-09-15T00:48:08.428Z,97.65
2022-09-15T00:49:07.614Z,97.75
2022-09-15T00:50:07.784Z,97.85
2022-09-15T00:51:07.963Z,97.75
2022-09-15T00:52:08.165Z,97.85
2022-09-15T00:53:08.334Z,98.00
2022-09-15T00:54:08.509Z,98.10
2022-09-15T00:55:08.689Z,98.20
2022-09-15T00:56:08.853Z,98.20
2022-09-15T00:57:09.057Z,98.41
2022-09-15T00:58:09.232Z,98.50
2022-09-15T00:59:09.403Z,98.50
2022-09-15T01:00:09.593Z,98.61
2022-09-15T01:01:09.817Z,98.61
2022-09-15T01:02:09.934Z,98.71
2022-09-15T01:03:10.072Z,98.71
2022-09-15T01:04:10.238Z,98.71
2022-09-15T01:05:10.417Z,98.81
2022-09-15T01:06:10.582Z,98.91
2022-09-15T01:07:10.772Z,99.02
2022-09-15T01:08:10.948Z,99.02
2022-09-15T01:09:11.121Z,99.02
2022-09-15T01:10:11.290Z,99.16
2022-09-15T01:11:11.496Z,99.27
2022-09-15T01:12:11.692Z,99.37
2022-09-15T01:13:11.921Z,99.37
2022-09-15T01:14:12.105Z,99.37
2022-09-15T01:15:12.290Z,99.47
2022-09-15T01:16:12.540Z,99.57
2022-09-15T01:17:12.612Z,99.57
2022-09-15T01:18:12.795Z,99.47
2022-09-15T01:19:12.981Z,99.37
2022-09-15T01:20:13.144Z,99.37
2022-09-15T01:21:13.319Z,99.37
2022-09-15T01:22:13.500Z,99.47
2022-09-15T01:23:13.695Z,99.27
2022-09-15T01:24:13.866Z,99.16
2022-09-15T01:25:14.044Z,99.16
2022-09-15T01:26:14.213Z,99.06
2022-09-15T01:27:40.438Z,99.06
2022-09-15T01:28:15.518Z,99.06
2022-09-15T01:29:14.694Z,99.16
2022-09-15T01:30:14.857Z,99.16
2022-09-15T01:31:15.103Z,99.16
2022-09-15T01:32:15.217Z,99.27
2022-09-15T01:33:15.395Z,99.27
2022-09-15T01:34:15.567Z,99.27
2022-09-15T01:35:15.756Z,99.27
2022-09-15T01:36:15.921Z,99.27
2022-09-15T01:37:16.141Z,99.27
2022-09-15T01:38:16.311Z,99.37
2022-09-15T01:39:16.477Z,99.37
2022-09-15T01:40:16.688Z,99.37
2022-09-15T01:41:16.774Z,99.37
2022-09-15T01:42:16.953Z,99.37
2022-09-15T01:43:17.128Z,99.27
2022-09-15T01:44:17.302Z,99.27
2022-09-15T01:45:17.466Z,99.16
2022-09-15T01:46:17.711Z,99.06
2022-09-15T01:47:17.824Z,98.96
2022-09-15T01:48:17.990Z,98.96
2022-09-15T01:49:18.164Z,98.86
2022-09-15T01:50:18.329Z,98.96
2022-09-15T01:51:18.514Z,98.96
2022-09-15T01:52:18.723Z,99.06
2022-09-15T01:53:18.901Z,99.06
2022-09-15T01:54:19.064Z,99.21
2022-09-15T01:55:19.255Z,99.21
2022-09-15T01:56:19.434Z,99.27
2022-09-15T01:57:19.620Z,99.16
2022-09-15T01:58:19.796Z,99.16
2022-09-15T01:59:19.985Z,99.16
2022-09-15T02:00:20.191Z,98.96
2022-09-15T02:01:20.500Z,98.86
2022-09-15T02:02:20.575Z,98.96
2022-09-15T02:03:20.754Z,98.86
2022-09-15T02:04:20.946Z,98.75
2022-09-15T02:05:21.130Z,98.75
2022-09-15T02:06:21.310Z,98.66
2022-09-15T02:07:21.500Z,98.66
2022-09-15T02:08:21.684Z,98.55
2022-09-15T02:09:21.856Z,98.55
2022-09-15T02:10:22.034Z,98.45
2022-09-15T02:11:22.208Z,98.35
2022-09-15T02:12:22.405Z,98.35
2022-09-15T02:13:22.586Z,98.35
2022-09-15T02:14:22.761Z,98.25
2022-09-15T02:15:22.935Z,98.35
2022-09-15T02:16:23.169Z,98.35
2022-09-15T02:17:23.244Z,98.35
2022-09-15T02:18:23.411Z,98.25
2022-09-15T02:19:23.579Z,98.14
2022-09-15T02:20:23.752Z,98.14
2022-09-15T02:21:23.907Z,98.14
2022-09-15T02:22:24.093Z,98.25
2022-09-15T02:23:24.274Z,98.25
2022-09-15T02:24:24.439Z,98.05
2022-09-15T02:25:24.606Z,98.05
2022-09-15T02:26:24.779Z,97.89
2022-09-15T02:27:24.960Z,98.00
2022-09-15T02:28:25.139Z,97.89
2022-09-15T02:29:25.304Z,97.80
2022-09-15T02:30:25.487Z,97.80
2022-09-15T02:31:25.786Z,97.89
2022-09-15T02:32:25.860Z,97.89
2022-09-15T02:33:26.034Z,97.80
2022-09-15T02:34:26.207Z,97.60
2022-09-15T02:35:26.375Z,97.49
2022-09-15T02:36:26.547Z,97.39
2022-09-15T02:37:26.737Z,97.39
2022-09-15T02:38:26.916Z,97.39
2022-09-15T02:39:27.075Z,97.29
2022-09-15T02:40:27.292Z,97.49
2022-09-15T02:41:27.456Z,97.53
2022-09-15T02:42:27.653Z,97.53
2022-09-15T02:43:27.817Z,97.64
2022-09-15T02:44:27.995Z,97.74
2022-09-15T02:45:28.216Z,97.84
2022-09-15T02:46:28.305Z,97.94
2022-09-15T02:47:28.496Z,98.05
2022-09-15T02:48:28.669Z,98.14
2022-09-15T02:49:28.847Z,98.14
2022-09-15T02:50:29.024Z,98.14
2022-09-15T02:51:29.205Z,98.35
2022-09-15T02:52:29.393Z,98.35
2022-09-15T02:53:29.574Z,98.60
2022-09-15T02:54:29.752Z,98.60
2022-09-15T02:55:29.921Z,98.70
2022-09-15T02:56:30.095Z,98.70
2022-09-15T02:57:30.284Z,98.80
2022-09-15T02:58:30.455Z,98.80
2022-09-15T02:59:30.624Z,98.91
2022-09-15T03:00:30.805Z,98.91
2022-09-15T03:01:30.975Z,99.01
2022-09-15T03:02:31.270Z,99.01
2022-09-15T03:03:31.373Z,99.21
2022-09-15T03:04:31.548Z,99.11
2022-09-15T03:05:31.720Z,99.11
2022-09-15T03:06:31.892Z,99.11
2022-09-15T03:07:32.091Z,99.21
2022-09-15T03:08:32.273Z,99.21
2022-09-15T03:09:32.448Z,99.26
2022-09-15T03:10:32.626Z,99.26
2022-09-15T03:11:32.810Z,99.36
2022-09-15T03:12:33.008Z,99.46
2022-09-15T03:13:33.182Z,99.56
2022-09-15T03:14:33.353Z,99.56
2022-09-15T03:15:33.532Z,99.66
2022-09-15T03:16:33.766Z,99.66
2022-09-15T03:17:33.922Z,99.66
2022-09-15T03:18:34.111Z,99.77
2022-09-15T03:19:34.290Z,99.77
2022-09-15T03:20:34.480Z,99.77
2022-09-15T03:21:34.669Z,99.77
2022-09-15T03:22:34.860Z,99.77
2022-09-15T03:23:35.039Z,99.97
2022-09-15T03:24:35.228Z,99.97
2022-09-15T03:25:35.424Z,99.97
2022-09-15T03:26:35.624Z,99.97
2022-09-15T03:27:35.818Z,99.99
2022-09-15T03:28:36.009Z,99.99
2022-09-15T03:29:36.187Z,99.99
2022-09-15T03:30:36.361Z,99.99
2022-09-15T03:31:36.570Z,99.99
2022-09-15T03:32:36.771Z,99.99
2022-09-15T03:33:36.942Z,99.99
2022-09-15T03:34:37.133Z,99.99
2022-09-15T03:35:37.322Z,99.99
2022-09-15T03:36:37.531Z,99.99
2022-09-15T03:37:37.715Z,99.99
2022-09-15T03:38:37.897Z,99.99
2022-09-15T03:39:38.090Z,99.99
2022-09-15T03:40:38.265Z,99.99
2022-09-15T03:41:38.456Z,99.99
2022-09-15T03:42:38.673Z,99.99
2022-09-15T03:43:38.856Z,99.99
2022-09-15T03:44:39.037Z,99.99
2022-09-15T03:45:39.283Z,99.99
2022-09-15T03:46:39.457Z,99.99
2022-09-15T03:47:39.668Z,99.99
2022-09-15T03:48:39.852Z,99.99
2022-09-15T03:49:40.022Z,99.99
2022-09-15T03:50:40.222Z,99.99
2022-09-15T03:51:40.400Z,99.99
2022-09-15T03:52:40.619Z,99.99
2022-09-15T03:53:40.807Z,99.99
2022-09-15T03:54:40.983Z,99.99
2022-09-15T03:55:41.246Z,99.99
2022-09-15T03:56:41.314Z,99.99
2022-09-15T03:57:41.503Z,99.99
2022-09-15T03:58:41.706Z,99.99
2022-09-15T03:59:41.873Z,99.99
2022-09-15T04:00:42.087Z,99.99
2022-09-15T04:01:42.331Z,99.99
2022-09-15T04:02:42.516Z,99.99
2022-09-15T04:03:47.591Z,99.99
2022-09-15T04:04:43.898Z,99.99
2022-09-15T04:05:43.138Z,99.99
2022-09-15T04:06:43.281Z,99.99
2022-09-15T04:07:43.433Z,99.99
2022-09-15T04:08:43.662Z,99.99
2022-09-15T04:09:43.876Z,99.99
2022-09-15T04:10:44.121Z,99.99
2022-09-15T04:11:44.257Z,99.99
2022-09-15T04:12:44.507Z,99.99
2022-09-15T04:13:44.638Z,99.99
2022-09-15T04:14:44.769Z,99.99
2022-09-15T04:15:44.902Z,99.99
2022-09-15T04:16:45.103Z,99.99
2022-09-15T04:17:45.245Z,99.99
2022-09-15T04:18:45.399Z,99.99
2022-09-15T04:19:45.531Z,99.99
2022-09-15T04:20:45.774Z,99.99
2022-09-15T04:21:45.931Z,99.99
2022-09-15T04:22:46.167Z,99.99
2022-09-15T04:23:46.351Z,99.99
2022-09-15T04:24:46.529Z,99.99
2022-09-15T04:25:46.711Z,99.99
2022-09-15T04:26:46.898Z,99.99
2022-09-15T04:27:47.090Z,99.99
2022-09-15T04:28:47.259Z,99.99
2022-09-15T04:29:47.441Z,99.99
2022-09-15T04:30:47.638Z,99.99
2022-09-15T04:31:47.887Z,99.99
2022-09-15T04:32:47.950Z,99.99
2022-09-15T04:33:48.163Z,99.99
2022-09-15T04:34:48.342Z,99.99
2022-09-15T04:35:48.522Z,99.99
2022-09-15T04:36:48.701Z,99.99
2022-09-15T04:37:48.906Z,99.99
2022-09-15T04:38:49.091Z,99.99
2022-09-15T04:39:49.357Z,99.99
2022-09-15T04:40:49.442Z,99.99
2022-09-15T04:41:49.624Z,99.99
2022-09-15T04:42:49.819Z,99.99
2022-09-15T04:43:50.007Z,99.99
2022-09-15T04:44:50.177Z,99.99
2022-09-15T04:45:50.357Z,99.99
2022-09-15T04:46:50.630Z,99.99
2022-09-15T04:47:50.726Z,99.99
2022-09-15T04:48:50.906Z,99.99
2022-09-15T04:49:51.084Z,99.99
2022-09-15T04:50:51.259Z,99.99
2022-09-15T04:51:51.444Z,99.99
2022-09-15T04:52:51.666Z,99.99
2022-09-15T04:53:52.150Z,99.99
2022-09-15T04:54:52.095Z,99.99
2022-09-15T04:55:52.293Z,99.99
2022-09-15T04:56:52.490Z,99.99
2022-09-15T04:57:52.773Z,99.99
2022-09-15T04:58:53.209Z,99.99
2022-09-15T04:59:53.058Z,99.99
2022-09-15T05:00:54.189Z,99.99
2022-09-15T05:01:53.457Z,99.99
2022-09-15T05:02:53.629Z,99.99
2022-09-15T05:03:53.803Z,99.99
2022-09-15T05:04:54.072Z,99.99
2022-09-15T05:05:54.051Z,99.99
2022-09-15T05:06:54.233Z,99.99
2022-09-15T05:07:54.436Z,99.99
2022-09-15T05:08:54.623Z,99.99
2022-09-15T05:09:54.811Z,99.99
2022-09-15T05:10:55.013Z,99.99
2022-09-15T05:11:55.196Z,99.99
2022-09-15T05:12:55.414Z,99.99
2022-09-15T05:13:55.605Z,99.99
2022-09-15T05:14:55.794Z,99.99
2022-09-15T05:15:56.029Z,99.99
2022-09-15T05:16:56.130Z,99.99
2022-09-15T05:17:56.340Z,99.99
2022-09-15T05:18:56.522Z,99.99
2022-09-15T05:19:56.783Z,99.99
2022-09-15T05:20:56.909Z,99.99
2022-09-15T05:21:57.118Z,99.99
2022-09-15T05:22:57.335Z,99.99
2022-09-15T05:23:57.526Z,99.99
2022-09-15T05:24:57.713Z,99.99
2022-09-15T05:25:58.533Z,99.99
2022-09-15T05:26:58.037Z,99.99
2022-09-15T05:27:58.241Z,99.99
2022-09-15T05:28:58.434Z,99.99
2022-09-15T05:30:23.561Z,99.99
2022-09-15T05:30:59.849Z,99.99
2022-09-15T05:31:58.947Z,99.99
2022-09-15T05:32:59.155Z,99.99
2022-09-15T05:33:59.346Z,99.99
2022-09-15T05:34:59.561Z,99.99
2022-09-15T05:35:59.733Z,99.99
2022-09-15T05:37:06.950Z,99.77
2022-09-15T05:38:00.129Z,99.56
2022-09-15T05:39:00.339Z,99.46
2022-09-15T05:40:02.404Z,99.36
2022-09-15T05:41:00.710Z,98.95
2022-09-15T05:42:00.874Z,98.75
2022-09-15T05:43:01.069Z,98.60
2022-09-15T05:44:01.265Z,98.39
2022-09-15T05:45:01.450Z,98.39
2022-09-15T05:46:01.618Z,98.09
2022-09-15T05:47:01.912Z,97.89
2022-09-15T05:48:02.019Z,97.69
2022-09-15T05:49:02.208Z,97.28
2022-09-15T05:50:02.383Z,97.13
2022-09-15T05:51:02.561Z,97.03
2022-09-15T05:52:02.742Z,96.83
2022-09-15T05:53:02.952Z,96.62
2022-09-15T05:54:03.115Z,96.62
2022-09-15T05:55:03.393Z,96.07
2022-09-15T05:56:03.458Z,95.76
2022-09-15T05:57:03.656Z,95.56
2022-09-15T05:58:03.851Z,95.36
2022-09-15T05:59:04.032Z,95.56
2022-09-15T06:00:04.214Z,95.25
2022-09-15T06:01:04.393Z,94.60
2022-09-15T06:02:05.873Z,94.40
2022-09-15T06:03:04.793Z,94.29
2022-09-15T06:04:04.941Z,93.89
2022-09-15T06:05:05.130Z,93.44
2022-09-15T06:06:05.314Z,93.03
2022-09-15T06:07:05.505Z,92.83
2022-09-15T06:08:05.706Z,92.83
2022-09-15T06:09:05.991Z,92.48
2022-09-15T06:10:06.033Z,91.87
2022-09-15T06:11:06.290Z,91.36
2022-09-15T06:12:06.334Z,91.02
2022-09-15T06:13:06.528Z,90.92
2022-09-15T06:14:06.689Z,89.86
2022-09-15T06:15:06.863Z,89.65
2022-09-15T06:16:07.092Z,89.01
2022-09-15T06:17:07.157Z,88.49
2022-09-15T06:18:07.408Z,88.29
2022-09-15T06:19:07.471Z,87.95
2022-09-15T06:20:07.633Z,87.10
2022-09-15T06:21:07.823Z,85.84
2022-09-15T06:22:07.987Z,85.64
2022-09-15T06:23:08.159Z,84.79
2022-09-15T06:24:08.342Z,84.59
2022-09-15T06:25:08.507Z,83.84
2022-09-15T06:26:08.661Z,83.17
2022-09-15T06:27:08.825Z,83.33
2022-09-15T06:28:09.107Z,84.28
2022-09-15T06:29:09.154Z,84.08
2022-09-15T06:30:09.310Z,84.33
2022-09-15T06:31:09.488Z,84.53
2022-09-15T06:32:09.738Z,84.14
2022-09-15T06:33:09.872Z,82.18
2022-09-15T06:34:10.025Z,81.27
2022-09-15T06:35:10.198Z,81.13
2022-09-15T06:36:10.352Z,80.63
2022-09-15T06:37:10.519Z,81.41
2022-09-15T06:38:10.697Z,82.76
2022-09-15T06:39:10.866Z,83.68
2022-09-15T06:40:11.059Z,83.72
2022-09-15T06:41:11.205Z,83.51
2022-09-15T06:42:13.806Z,83.61
2022-09-15T06:43:11.528Z,84.47
2022-09-15T06:44:11.696Z,84.47
2022-09-15T06:45:11.934Z,84.67
2022-09-15T06:46:12.005Z,84.93
2022-09-15T06:47:12.114Z,84.02
2022-09-15T06:48:24.059Z,83.92
2022-09-15T06:49:13.396Z,83.07
2022-09-15T06:50:12.553Z,83.37
2022-09-15T06:51:12.708Z,82.93
2022-09-15T06:52:12.877Z,82.83
2022-09-15T06:53:13.821Z,82.53
2022-09-15T06:54:13.206Z,81.88
2022-09-15T06:55:13.379Z,81.57
2022-09-15T06:56:13.518Z,81.37
2022-09-15T06:57:13.674Z,81.82
2022-09-15T06:58:13.851Z,82.22
2022-09-15T06:59:13.995Z,81.62
2022-09-15T07:00:14.155Z,82.02
2022-09-15T07:01:14.332Z,82.42
2022-09-15T07:02:14.619Z,82.02
2022-09-15T07:03:14.733Z,81.68
2022-09-15T07:04:14.764Z,81.37
2022-09-15T07:05:14.907Z,81.78
2022-09-15T07:06:15.104Z,81.23
2022-09-15T07:07:15.135Z,79.38
2022-09-15T07:08:15.292Z,79.38
2022-09-15T07:09:15.444Z,80.02
2022-09-15T07:10:16.171Z,80.77
2022-09-15T07:11:15.773Z,81.62
2022-09-15T07:12:15.929Z,81.62
2022-09-15T07:13:16.079Z,82.22
2022-09-15T07:14:16.224Z,82.12
2022-09-15T07:15:16.387Z,81.88
2022-09-15T07:16:16.624Z,81.78
2022-09-15T07:17:16.637Z,81.34
2022-09-15T07:18:16.805Z,79.68
2022-09-15T07:19:16.946Z,78.94
2022-09-15T07:20:17.076Z,78.88
2022-09-15T07:21:17.222Z,79.38
2022-09-15T07:22:17.367Z,78.88
2022-09-15T07:23:17.634Z,78.84
2022-09-15T07:24:17.661Z,77.93
2022-09-15T07:25:17.791Z,77.62
2022-09-15T07:26:17.943Z,79.17
2022-09-15T07:27:18.076Z,78.53
2022-09-15T07:28:18.238Z,77.93
2022-09-15T07:29:18.374Z,77.79
2022-09-15T07:30:18.521Z,77.62
2022-09-15T07:31:18.695Z,77.75
2022-09-15T07:32:18.874Z,74.99
2022-09-15T07:33:19.023Z,76.04
2022-09-15T07:34:19.178Z,76.48
2022-09-15T07:35:19.308Z,76.44
2022-09-15T07:36:19.477Z,77.32
2022-09-15T07:37:19.620Z,79.01
2022-09-15T07:38:19.784Z,80.06
2022-09-15T07:39:19.920Z,80.87
2022-09-15T07:40:20.101Z,80.97
2022-09-15T07:41:20.165Z,80.97
2022-09-15T07:42:20.295Z,81.31
2022-09-15T07:43:20.460Z,81.31
2022-09-15T07:44:20.620Z,81.41
2022-09-15T07:45:20.820Z,81.71
2022-09-15T07:46:20.980Z,81.48
2022-09-15T07:47:21.107Z,80.66
2022-09-15T07:48:25.719Z,80.97
2022-09-15T07:49:22.350Z,80.97
2022-09-15T07:50:21.500Z,80.43
2022-09-15T07:51:21.734Z,80.12
2022-09-15T07:52:21.720Z,79.14
2022-09-15T07:53:22.099Z,78.84
2022-09-15T07:54:23.087Z,78.74
2022-09-15T07:55:22.169Z,78.63
2022-09-15T07:56:22.329Z,78.13
2022-09-15T07:57:22.463Z,78.57
2022-09-15T07:58:22.641Z,78.97
2022-09-15T07:59:22.778Z,79.17
2022-09-15T08:00:22.969Z,78.88
2022-09-15T08:01:23.103Z,78.50
2022-09-15T08:02:24.801Z,76.64
2022-09-15T08:03:23.411Z,76.98
2022-09-15T08:04:23.558Z,77.76
2022-09-15T08:05:23.699Z,78.67
2022-09-15T08:06:23.853Z,77.97
2022-09-15T08:07:23.993Z,78.03
2022-09-15T08:08:24.187Z,75.54
2022-09-15T08:09:24.326Z,75.74
2022-09-15T08:10:24.468Z,75.87
2022-09-15T08:11:24.609Z,76.82
2022-09-15T08:12:24.780Z,76.98
2022-09-15T08:13:24.949Z,76.75
2022-09-15T08:14:25.088Z,76.04
2022-09-15T08:15:25.246Z,74.90
2022-09-15T08:16:25.483Z,74.79
2022-09-15T08:17:25.570Z,74.83
2022-09-15T08:18:25.717Z,74.90
2022-09-15T08:19:25.930Z,74.19
2022-09-15T08:20:25.946Z,74.59
2022-09-15T08:21:26.072Z,74.66
2022-09-15T08:22:26.209Z,74.55
2022-09-15T08:23:26.347Z,73.52
2022-09-15T08:24:26.471Z,73.11
2022-09-15T08:25:26.608Z,72.37
2022-09-15T08:26:26.776Z,73.08
2022-09-15T08:27:26.907Z,73.08
2022-09-15T08:28:27.086Z,73.38
2022-09-15T08:29:27.090Z,73.08
2022-09-15T08:30:27.217Z,72.77
2022-09-15T08:31:27.393Z,73.48
2022-09-15T08:32:27.592Z,73.72
2022-09-15T08:33:27.629Z,72.91
2022-09-15T08:34:27.756Z,73.72
2022-09-15T08:35:27.882Z,74.05
2022-09-15T08:36:28.400Z,74.08
2022-09-15T08:37:28.403Z,74.69
2022-09-15T08:38:28.233Z,74.99
2022-09-15T08:39:28.366Z,74.59
2022-09-15T08:40:28.627Z,75.20
2022-09-15T08:41:28.662Z,74.90
2022-09-15T08:42:28.791Z,74.69
2022-09-15T08:43:28.934Z,74.46
2022-09-15T08:44:29.047Z,73.85
2022-09-15T08:45:29.187Z,73.45
2022-09-15T08:46:29.365Z,73.52
2022-09-15T08:47:29.461Z,73.75
2022-09-15T08:48:29.614Z,73.95
2022-09-15T08:49:49.966Z,74.46
2022-09-15T08:50:30.876Z,74.05
2022-09-15T08:51:29.992Z,74.12
2022-09-15T08:52:30.132Z,74.12
2022-09-15T08:53:30.256Z,72.20
2022-09-15T08:54:30.395Z,72.85
2022-09-15T08:55:30.527Z,73.65
2022-09-15T08:56:30.659Z,73.99
2022-09-15T08:57:30.774Z,74.29
2022-09-15T08:58:30.904Z,74.22
2022-09-15T08:59:31.025Z,74.08
2022-09-15T09:00:31.164Z,74.19
2022-09-15T09:01:31.354Z,74.08
2022-09-15T09:02:31.476Z,73.99
2022-09-15T09:03:31.587Z,74.02
2022-09-15T09:04:31.718Z,74.52
2022-09-15T09:05:31.837Z,74.83
2022-09-15T09:06:31.991Z,74.93
2022-09-15T09:07:32.134Z,75.54
2022-09-15T09:08:32.276Z,75.34
2022-09-15T09:09:32.419Z,75.87
2022-09-15T09:10:32.557Z,75.57
2022-09-15T09:11:32.745Z,76.11
2022-09-15T09:12:32.757Z,76.42
2022-09-15T09:13:35.559Z,76.11
2022-09-15T09:14:33.090Z,76.31
2022-09-15T09:15:33.302Z,76.62
2022-09-15T09:16:33.369Z,77.22
2022-09-15T09:17:33.508Z,76.62
2022-09-15T09:18:33.644Z,76.31
2022-09-15T09:19:33.782Z,76.51
2022-09-15T09:20:33.927Z,77.15
2022-09-15T09:21:34.233Z,76.86
2022-09-15T09:22:34.275Z,76.82
2022-09-15T09:23:34.416Z,76.62
2022-09-15T09:24:34.560Z,76.11
2022-09-15T09:25:34.715Z,76.21
2022-09-15T09:26:34.878Z,76.58
2022-09-15T09:27:35.031Z,75.27
2022-09-15T09:28:35.179Z,75.23
2022-09-15T09:29:35.308Z,74.73
2022-09-15T09:30:35.487Z,74.19
2022-09-15T09:31:35.611Z,73.55
2022-09-15T09:32:35.761Z,73.25
2022-09-15T09:33:37.194Z,72.74
2022-09-15T09:34:36.155Z,73.05
2022-09-15T09:35:36.214Z,72.61
2022-09-15T09:36:36.359Z,72.11
2022-09-15T09:37:36.523Z,72.20
2022-09-15T09:38:36.682Z,70.90
2022-09-15T09:39:36.809Z,71.47
2022-09-15T09:40:37.098Z,71.30
2022-09-15T09:41:37.034Z,71.70
2022-09-15T09:42:37.174Z,71.91
2022-09-15T09:43:37.319Z,70.06
2022-09-15T09:44:37.443Z,70.63
2022-09-15T09:45:37.571Z,70.03
2022-09-15T09:46:37.757Z,68.88
2022-09-15T09:47:37.767Z,68.15
2022-09-15T09:48:37.893Z,66.71
2022-09-15T09:49:38.005Z,67.35
2022-09-15T09:50:38.137Z,68.15
2022-09-15T09:51:38.304Z,67.51
2022-09-15T09:52:38.424Z,66.08
2022-09-15T09:53:38.533Z,65.94
2022-09-15T09:54:38.671Z,64.24
2022-09-15T09:55:38.764Z,65.17
2022-09-15T09:56:38.885Z,65.74
2022-09-15T09:57:40.860Z,65.91
2022-09-15T09:58:39.157Z,65.77
2022-09-15T09:59:39.278Z,65.04
2022-09-15T10:00:39.384Z,64.01
2022-09-15T10:01:39.533Z,63.28
2022-09-15T10:02:39.545Z,62.84
2022-09-15T10:03:39.651Z,63.54
2022-09-15T10:04:39.774Z,63.34
2022-09-15T10:05:39.891Z,62.92
2022-09-15T10:06:40.005Z,61.25
2022-09-15T10:07:40.102Z,60.92
2022-09-15T10:08:40.202Z,60.02
2022-09-15T10:09:40.307Z,59.49
2022-09-15T10:10:40.414Z,58.99
2022-09-15T10:11:40.549Z,60.19
2022-09-15T10:12:40.651Z,59.69
2022-09-15T10:13:40.725Z,58.86
2022-09-15T10:14:40.809Z,57.68
2022-09-15T10:15:40.893Z,56.68
2022-09-15T10:16:41.116Z,57.91
2022-09-15T10:17:41.025Z,57.91
2022-09-15T10:18:41.080Z,57.04
2022-09-15T10:19:41.163Z,58.35
2022-09-15T10:20:41.248Z,59.68
2022-09-15T10:21:41.332Z,59.95
2022-09-15T10:22:41.416Z,58.95
2022-09-15T10:23:41.578Z,58.87
2022-09-15T10:24:41.553Z,59.08
2022-09-15T10:25:58.672Z,59.08
2022-09-15T10:26:42.676Z,58.19
2022-09-15T10:27:41.751Z,55.87
2022-09-15T10:28:41.833Z,55.59
2022-09-15T10:29:41.926Z,55.66
2022-09-15T10:30:41.993Z,54.34
2022-09-15T10:31:42.132Z,56.09
2022-09-15T10:32:42.184Z,55.07
2022-09-15T10:33:42.267Z,56.09
2022-09-15T10:34:42.345Z,56.82
2022-09-15T10:35:42.444Z,56.44
2022-09-15T10:36:42.514Z,53.36
2022-09-15T10:37:42.635Z,53.72
2022-09-15T10:38:42.720Z,52.94
2022-09-15T10:39:42.775Z,50.87
2022-09-15T10:40:42.844Z,49.58
2022-09-15T10:41:42.930Z,51.03
2022-09-15T10:42:42.995Z,50.92
2022-09-15T10:43:43.092Z,51.47
2022-09-15T10:44:43.154Z,51.84
2022-09-15T10:45:43.280Z,50.90
2022-09-15T10:46:43.324Z,51.10
2022-09-15T10:47:43.391Z,51.15
2022-09-15T10:48:43.455Z,52.34
2022-09-15T10:49:43.515Z,49.68
2022-09-15T10:50:43.583Z,48.14
2022-09-15T10:51:43.646Z,48.22
2022-09-15T10:52:43.716Z,48.24
2022-09-15T10:53:43.778Z,48.71
2022-09-15T10:54:43.844Z,51.37
2022-09-15T10:55:52.685Z,50.90
2022-09-15T10:56:44.848Z,50.74
2022-09-15T10:57:43.929Z,50.40
2022-09-15T10:58:45.790Z,50.15
2022-09-15T10:59:44.040Z,50.85
2022-09-15T11:00:44.167Z,49.77
2022-09-15T11:01:44.300Z,49.92
2022-09-15T11:02:44.257Z,51.15
2022-09-15T11:03:44.350Z,50.89
2022-09-15T11:04:44.418Z,52.14
2022-09-15T11:05:44.502Z,52.94
2022-09-15T11:06:44.578Z,51.89
2022-09-15T11:07:44.676Z,53.09
2022-09-15T11:08:44.802Z,53.92
2022-09-15T11:09:44.913Z,54.43
2022-09-15T11:10:45.012Z,55.15
2022-09-15T11:11:45.112Z,55.35
2022-09-15T11:12:45.207Z,55.65
2022-09-15T11:13:45.298Z,56.38
2022-09-15T11:14:45.400Z,57.01
2022-09-15T11:15:45.507Z,57.44
2022-09-15T11:16:45.655Z,58.50
2022-09-15T11:17:45.752Z,58.70
2022-09-15T11:18:45.880Z,59.20
2022-09-15T11:19:45.980Z,59.30
2022-09-15T11:20:46.086Z,58.29
2022-09-15T11:21:46.197Z,58.70
2022-09-15T11:22:49.628Z,58.47
2022-09-15T11:23:46.450Z,58.17
2022-09-15T11:24:46.560Z,57.77
2022-09-15T11:25:46.675Z,57.91
2022-09-15T11:26:46.798Z,56.65
2022-09-15T11:27:46.929Z,54.87
2022-09-15T11:28:47.047Z,53.19
2022-09-15T11:29:47.166Z,52.37
2022-09-15T11:30:47.980Z,51.64
2022-09-15T11:31:47.401Z,51.64
2022-09-15T11:32:47.453Z,52.00
2022-09-15T11:33:47.550Z,52.84
2022-09-15T11:34:47.650Z,53.80
2022-09-15T11:35:47.759Z,54.72
2022-09-15T11:36:47.858Z,55.93
2022-09-15T11:37:47.988Z,55.93
2022-09-15T11:38:48.110Z,56.13
2022-09-15T11:39:48.266Z,56.15
2022-09-15T11:40:48.254Z,56.05
2022-09-15T11:41:48.356Z,55.73
2022-09-15T11:42:48.461Z,54.90
2022-09-15T11:43:48.566Z,54.93
2022-09-15T11:44:48.673Z,54.93
2022-09-15T11:45:48.774Z,54.93
2022-09-15T11:46:48.921Z,55.82
2022-09-15T11:47:49.028Z,55.65
2022-09-15T11:48:49.136Z,56.48
2022-09-15T11:49:49.248Z,55.68
2022-09-15T11:50:49.352Z,55.25
2022-09-15T11:51:49.456Z,54.85
2022-09-15T11:52:49.574Z,54.95
2022-09-15T11:53:49.709Z,54.12
2022-09-15T11:54:49.800Z,54.55
2022-09-15T11:55:49.917Z,55.05
2022-09-15T11:56:50.025Z,55.45
2022-09-15T11:57:50.155Z,54.50
2022-09-15T11:58:50.253Z,54.00
2022-09-15T11:59:50.352Z,54.80
2022-09-15T12:00:50.452Z,55.00
2022-09-15T12:01:50.612Z,54.70
2022-09-15T12:02:50.698Z,55.02
2022-09-15T12:03:50.690Z,55.95
2022-09-15T12:04:50.764Z,56.28
2022-09-15T12:05:50.875Z,56.88
2022-09-15T12:06:51.096Z,56.65
2022-09-15T12:07:51.126Z,56.05
2022-09-15T12:08:51.247Z,56.65
2022-09-15T12:09:51.346Z,56.48
2022-09-15T12:10:51.463Z,57.21
2022-09-15T12:11:51.547Z,58.34
2022-09-15T12:12:51.681Z,58.04
2022-09-15T12:13:51.810Z,58.67
2022-09-15T12:14:51.921Z,58.90
2022-09-15T12:15:52.067Z,59.60
2022-09-15T12:16:52.155Z,60.00
2022-09-15T12:17:52.315Z,60.84
2022-09-15T12:18:52.434Z,62.05
2022-09-15T12:19:52.755Z,64.76
2022-09-15T12:20:52.716Z,65.30
2022-09-15T12:21:52.846Z,64.29
2022-09-15T12:22:53.011Z,65.33
2022-09-15T12:23:53.185Z,64.39
2022-09-15T12:24:53.301Z,64.32
2022-09-15T12:25:53.432Z,64.32
2022-09-15T12:26:53.939Z,64.12
2022-09-15T12:27:53.762Z,63.01
2022-09-15T12:28:53.909Z,63.71
2022-09-15T12:29:54.040Z,63.45
2022-09-15T12:30:54.200Z,63.04
2022-09-15T12:31:54.327Z,63.65
2022-09-15T12:32:54.818Z,63.34
2022-09-15T12:33:54.621Z,64.55
2022-09-15T12:34:54.782Z,64.05
2022-09-15T12:35:54.930Z,63.92
2022-09-15T12:36:55.131Z,63.42
2022-09-15T12:37:55.242Z,63.11
2022-09-15T12:38:55.399Z,62.58
2022-09-15T12:39:55.560Z,60.96
2022-09-15T12:40:55.687Z,58.26
2022-09-15T12:41:55.869Z,57.75
2022-09-15T12:42:56.007Z,54.49
2022-09-15T12:43:56.177Z,54.82
2022-09-15T12:44:56.289Z,55.65
2022-09-15T12:45:56.456Z,55.27
2022-09-15T12:46:56.555Z,55.90
2022-09-15T12:47:56.580Z,56.83
2022-09-15T12:48:56.696Z,58.29
2022-09-15T12:49:56.824Z,58.62
2022-09-15T12:50:56.938Z,59.32
2022-09-15T12:51:57.079Z,60.15
2022-09-15T12:52:57.214Z,60.65
2022-09-15T12:53:57.331Z,60.05
2022-09-15T12:54:57.451Z,59.78